Time;durP1;ratioP1;P1;durP2;ratioP2;P2;SDS_P1;SDS_P2;PMS_P1;PMS_P2;Temp;Humidity;BMP_temperature;BMP_pressure;BME280_temperature;BME280_humidity;BME280_pressure;Samples;Min_cycle;Max_cycle;Signal;HPM_P1;HPM_P2
2023/05/21 00:01:07;;;;;;;;;;;;;;;14.14;67.69;101806.22;5050016;28;1987;-84
2023/05/21 00:03:34;;;;;;;;;;;;;;;14.12;68.61;101810.72;5042335;28;1423;-83
2023/05/21 00:06:02;;;;;;;;;;;;;;;14.10;68.24;101810.00;5044831;28;1481;-83
2023/05/21 00:08:27;;;;;;;;;;;;;;;14.11;67.83;101806.47;5046451;28;1236;-84
2023/05/21 00:10:52;;;;;;;;;;;;;;;14.11;67.57;101801.25;5043536;28;1521;-84
2023/05/21 00:13:18;;;;;;;;;;;;;;;14.10;68.34;101794.34;5047175;28;1132;-84
2023/05/21 00:15:43;;;;;;;;;;;;;;;14.07;68.23;101794.63;5047935;28;1505;-82
2023/05/21 00:18:08;;;;;;;;;;;;;;;14.06;67.83;101800.78;5047835;28;1107;-83
2023/05/21 00:20:34;;;;;;;;;;;;;;;14.05;68.11;101799.97;5046300;28;1973;-83
2023/05/21 00:23:03;;;;;;;;;;;;;;;14.03;68.13;101798.41;5048207;28;1653;-83
2023/05/21 00:25:28;;;;;;;;;;;;;;;14.03;68.27;101793.22;5046581;28;1235;-83
2023/05/21 00:27:53;;;;;;;;;;;;;;;14.00;68.22;101785.63;5046343;28;1522;-85
2023/05/21 00:30:18;;;;;;;;;;;;;;;13.97;68.06;101793.69;5045793;28;1287;-84
2023/05/21 00:32:44;;;;;;;;;;;;;;;13.94;68.47;101793.97;5047639;28;1146;-84
2023/05/21 00:35:09;;;;;;;;;;;;;;;13.91;68.48;101783.75;5047166;28;1122;-83
2023/05/21 00:37:34;;;;;;;;;;;;;;;13.88;68.12;101784.00;5048295;28;1099;-83
2023/05/21 00:40:00;;;;;;;;;;;;;;;13.85;69.11;101773.81;5065272;28;1898;-85
2023/05/21 00:42:26;;;;;;;;;;;;;;;13.80;68.92;101769.78;5056485;28;1297;-84
2023/05/21 00:44:53;;;;;;;;;;;;;;;13.78;69.04;101769.09;5047174;28;1283;-85
2023/05/21 00:47:20;;;;;;;;;;;;;;;13.75;69.54;101768.50;5046163;28;1326;-84
2023/05/21 00:49:47;;;;;;;;;;;;;;;13.70;69.09;101766.25;5049849;28;1247;-83
2023/05/21 00:52:12;;;;;;;;;;;;;;;13.69;70.67;101763.78;5045465;28;1214;-84
2023/05/21 00:54:38;;;;;;;;;;;;;;;13.69;69.60;101758.56;5048410;28;1216;-85
2023/05/21 00:57:03;;;;;;;;;;;;;;;13.69;70.12;101758.56;5046047;28;1215;-83
2023/05/21 00:59:30;;;;;;;;;;;;;;;13.68;71.38;101757.75;5056963;28;1281;-84
2023/05/21 01:01:55;;;;;;;;;;;;;;;13.68;69.61;101762.97;5045666;28;1959;-84
2023/05/21 01:04:21;;;;;;;;;;;;;;;13.68;69.82;101760.34;5044259;28;1607;-85
2023/05/21 01:06:46;;;;;;;;;;;;;;;13.67;71.06;101761.31;5048378;28;1028;-84
2023/05/21 01:09:12;;;;;;;;;;;;;;;13.66;71.04;101759.66;5046096;28;1627;-83
2023/05/21 01:11:42;;;;;;;;;;;;;;;13.68;70.78;101762.13;5044013;28;989;-83
2023/05/21 01:14:09;;;;;;;;;;;;;;;13.69;71.48;101764.63;5050330;28;1171;-84
2023/05/21 01:16:39;;;;;;;;;;;;;;;13.69;70.55;101759.41;5049220;28;1235;-82
2023/05/21 01:19:05;;;;;;;;;;;;;;;13.70;70.81;101761.06;5049725;28;1438;-84
2023/05/21 01:21:34;;;;;;;;;;;;;;;13.71;71.95;101762.72;5048657;28;1967;-85
2023/05/21 01:24:00;;;;;;;;;;;;;;;13.73;70.99;101753.00;5056828;28;1317;-82
2023/05/21 01:26:27;;;;;;;;;;;;;;;13.75;71.01;101753.69;5063378;28;1309;-84
2023/05/21 01:28:52;;;;;;;;;;;;;;;13.76;72.05;101750.16;5051561;28;1224;-84
2023/05/21 01:31:25;;;;;;;;;;;;;;;13.77;72.21;101741.38;5050256;28;1158;-82
2023/05/21 01:33:51;;;;;;;;;;;;;;;13.79;72.15;101744.69;5051100;28;1086;-84
2023/05/21 01:36:25;;;;;;;;;;;;;;;13.84;72.10;101740.88;5051282;28;1189;-83
2023/05/21 01:39:00;;;;;;;;;;;;;;;13.85;71.33;101734.72;5043771;28;1275;-82
2023/05/21 01:41:27;;;;;;;;;;;;;;;13.87;72.42;101743.22;5049882;28;1898;-86
2023/05/21 01:43:55;;;;;;;;;;;;;;;13.89;71.66;101743.94;5045373;28;1323;-84
2023/05/21 01:46:22;;;;;;;;;;;;;;;13.90;71.69;101745.59;5051869;28;1251;-85
2023/05/21 01:48:48;;;;;;;;;;;;;;;13.89;71.50;101736.13;5050857;28;1376;-84
2023/05/21 01:51:14;;;;;;;;;;;;;;;13.90;72.62;101745.59;5050162;28;1158;-84
2023/05/21 01:53:39;;;;;;;;;;;;;;;13.88;71.49;101743.13;5050289;28;1371;-83
2023/05/21 01:56:05;;;;;;;;;;;;;;;13.86;72.06;101744.19;5050021;28;1409;-84
2023/05/21 01:58:30;;;;;;;;;;;;;;;13.82;72.72;101734.03;5057598;28;1410;-84
2023/05/21 02:00:55;;;;;;;;;;;;;;;13.82;72.50;101735.81;5046726;28;1890;-83
2023/05/21 02:03:22;;;;;;;;;;;;;;;13.81;72.33;101737.56;5048642;28;1305;-84
2023/05/21 02:05:47;;;;;;;;;;;;;;;13.80;71.95;101735.91;5047872;28;1218;-83
2023/05/21 02:08:13;;;;;;;;;;;;;;;13.79;72.45;101734.25;5048673;28;1360;-84
2023/05/21 02:10:39;;;;;;;;;;;;;;;13.79;73.02;101733.44;5049832;28;1478;-84
2023/05/21 02:13:04;;;;;;;;;;;;;;;13.75;73.18;101732.00;5049931;28;1287;-82
2023/05/21 02:15:29;;;;;;;;;;;;;;;13.72;72.94;101733.09;5050519;28;1156;-84
2023/05/21 02:17:55;;;;;;;;;;;;;;;13.68;73.20;101736.91;5049656;28;1432;-84
2023/05/21 02:20:21;;;;;;;;;;;;;;;13.67;72.90;101740.47;5046577;28;1893;-84
2023/05/21 02:22:47;;;;;;;;;;;;;;;13.68;73.20;101736.06;5048392;28;1369;-82
2023/05/21 02:25:13;;;;;;;;;;;;;;;13.67;73.45;101740.47;5049456;28;1161;-84
2023/05/21 02:27:39;;;;;;;;;;;;;;;13.66;73.06;101738.81;5050131;28;1160;-83
2023/05/21 02:30:06;;;;;;;;;;;;;;;13.66;72.58;101738.81;5048618;28;1596;-84
2023/05/21 02:32:31;;;;;;;;;;;;;;;13.64;72.99;101730.25;5023038;28;1313;-83
2023/05/21 02:34:57;;;;;;;;;;;;;;;13.62;72.98;101732.16;5048749;28;1329;-83
2023/05/21 02:37:22;;;;;;;;;;;;;;;13.61;73.92;101729.69;5046699;28;1136;-84
2023/05/21 02:39:48;;;;;;;;;;;;;;;13.59;72.88;101727.22;5052321;28;1310;-83
2023/05/21 02:42:13;;;;;;;;;;;;;;;13.57;73.87;101734.31;5047988;28;1914;-84
2023/05/21 02:44:38;;;;;;;;;;;;;;;13.54;73.80;101730.19;5048401;28;1372;-84
2023/05/21 02:47:03;;;;;;;;;;;;;;;13.52;73.95;101728.63;5061859;28;1299;-84
2023/05/21 02:49:28;;;;;;;;;;;;;;;13.52;73.58;101726.03;5049223;28;1227;-83
2023/05/21 02:51:54;;;;;;;;;;;;;;;13.48;74.66;101719.44;5049206;28;1297;-83
2023/05/21 02:54:19;;;;;;;;;;;;;;;13.47;74.41;101723.78;5049550;28;1177;-84
2023/05/21 02:56:45;;;;;;;;;;;;;;;13.49;74.57;101728.91;5058023;28;1226;-84
2023/05/21 02:59:10;;;;;;;;;;;;;;;13.49;73.61;101721.91;5049543;28;1189;-83
2023/05/21 03:01:35;;;;;;;;;;;;;;;13.48;73.51;101720.25;5048467;28;2019;-84
2023/05/21 03:04:00;;;;;;;;;;;;;;;13.47;75.09;101722.97;5047008;28;1317;-83
2023/05/21 03:06:25;;;;;;;;;;;;;;;13.46;75.70;101726.53;5047218;28;1295;-84
2023/05/21 03:08:50;;;;;;;;;;;;;;;13.41;74.49;101713.84;5050311;28;1244;-82
2023/05/21 03:11:17;;;;;;;;;;;;;;;13.44;74.49;101718.00;5053645;28;1160;-83
2023/05/21 03:13:43;;;;;;;;;;;;;;;13.43;76.11;101716.34;5068759;28;1281;-84
2023/05/21 03:16:08;;;;;;;;;;;;;;;13.40;74.99;101717.41;5058923;28;1150;-83
2023/05/21 03:18:33;;;;;;;;;;;;;;;13.42;76.21;101709.47;5048341;28;1191;-83
2023/05/21 03:20:58;;;;;;;;;;;;;;;13.41;75.93;101707.81;5056221;28;1965;-82
2023/05/21 03:23:23;;;;;;;;;;;;;;;13.40;75.03;101706.16;5048827;28;1097;-84
2023/05/21 03:25:49;;;;;;;;;;;;;;;13.41;75.10;101702.59;5049380;28;1085;-84
2023/05/21 03:28:16;;;;;;;;;;;;;;;13.41;74.85;101702.59;5048589;28;1054;-83
2023/05/21 03:30:45;;;;;;;;;;;;;;;13.39;75.09;101702.72;5048573;28;1081;-84
2023/05/21 03:33:11;;;;;;;;;;;;;;;13.39;75.19;101704.50;5063117;28;1329;-83
2023/05/21 03:35:36;;;;;;;;;;;;;;;13.36;75.75;101704.75;5048990;28;1230;-84
2023/05/21 03:38:01;;;;;;;;;;;;;;;13.35;75.27;101703.09;5047431;28;1163;-82
2023/05/21 03:40:26;;;;;;;;;;;;;;;13.33;76.78;101705.00;5047823;28;1952;-84
2023/05/21 03:42:51;;;;;;;;;;;;;;;13.32;76.09;101692.94;5047103;28;1183;-83
2023/05/21 03:45:16;;;;;;;;;;;;;;;13.29;75.60;101694.81;5047765;28;1370;-82
2023/05/21 03:47:42;;;;;;;;;;;;;;;13.31;75.26;101691.28;5049923;28;1497;-84
2023/05/21 03:50:08;;;;;;;;;;;;;;;13.26;76.31;101695.06;5048104;28;1149;-84
2023/05/21 03:52:33;;;;;;;;;;;;;;;13.23;76.43;101700.50;5046749;28;1310;-84
2023/05/21 03:54:58;;;;;;;;;;;;;;;13.20;77.38;101711.16;5049051;28;1438;-83
2023/05/21 03:57:23;;;;;;;;;;;;;;;13.15;78.19;101697.66;5058314;28;1204;-83
2023/05/21 03:59:49;;;;;;;;;;;;;;;13.13;76.92;101702.16;5047006;28;1355;-82
2023/05/21 04:02:14;;;;;;;;;;;;;;;13.11;77.07;101706.66;5046054;28;1886;-83
2023/05/21 04:04:39;;;;;;;;;;;;;;;13.09;77.93;101707.72;5045884;28;1387;-84
2023/05/21 04:07:04;;;;;;;;;;;;;;;13.06;78.12;101708.78;5046491;28;1368;-80
2023/05/21 04:09:29;;;;;;;;;;;;;;;13.08;78.71;101706.91;5047753;28;1212;-84
2023/05/21 04:11:55;;;;;;;;;;;;;;;13.08;77.96;101716.50;5046393;28;1270;-83
2023/05/21 04:14:21;;;;;;;;;;;;;;;13.08;78.64;101706.91;5046372;28;1283;-82
2023/05/21 04:16:47;;;;;;;;;;;;;;;13.07;77.79;101705.22;5048031;28;1525;-84
2023/05/21 04:19:13;;;;;;;;;;;;;;;13.06;78.27;101707.94;5047563;28;1279;-85
2023/05/21 04:21:38;;;;;;;;;;;;;;;13.05;77.74;101709.72;5050679;28;1901;-83
2023/05/21 04:24:03;;;;;;;;;;;;;;;13.07;77.76;101710.44;5048388;28;1251;-82
2023/05/21 04:26:32;;;;;;;;;;;;;;;13.10;78.11;101704.16;5046259;28;1329;-83
2023/05/21 04:28:58;;;;;;;;;;;;;;;13.08;78.78;101706.06;5048357;28;1541;-84
2023/05/21 04:31:23;;;;;;;;;;;;;;;13.07;78.74;101715.63;5051472;28;1301;-85
2023/05/21 04:33:49;;;;;;;;;;;;;;;13.06;78.15;101714.00;5048146;28;1355;-81
2023/05/21 04:36:15;;;;;;;;;;;;;;;13.08;79.03;101719.09;5045983;28;1439;-82
2023/05/21 04:38:41;;;;;;;;;;;;;;;13.10;79.73;101711.97;5048067;28;1319;-83
2023/05/21 04:41:09;;;;;;;;;;;;;;;13.10;78.56;101715.41;5047231;28;1894;-84
2023/05/21 04:43:35;;;;;;;;;;;;;;;13.10;78.70;101719.78;5046630;28;1200;-82
2023/05/21 04:46:01;;;;;;;;;;;;;;;13.08;80.55;101716.50;5047419;28;1208;-82
2023/05/21 04:48:27;;;;;;;;;;;;;;;13.06;79.71;101708.78;5045677;28;1234;-84
2023/05/21 04:50:52;;;;;;;;;;;;;;;13.08;80.17;101711.28;5047362;28;1211;-84
2023/05/21 04:53:18;;;;;;;;;;;;;;;13.07;80.34;101710.44;5058980;28;1164;-83
2023/05/21 04:55:43;;;;;;;;;;;;;;;13.05;80.20;101712.34;5049425;28;1247;-84
2023/05/21 04:58:11;;;;;;;;;;;;;;;13.04;80.86;101715.91;5047011;28;1415;-83
2023/05/21 05:00:37;;;;;;;;;;;;;;;13.08;80.21;101716.50;5046884;28;1937;-83
2023/05/21 05:03:02;;;;;;;;;;;;;;;13.11;80.08;101711.84;5051783;28;1415;-83
2023/05/21 05:05:28;;;;;;;;;;;;;;;13.13;80.91;101709.97;5045990;28;1645;-84
2023/05/21 05:07:53;;;;;;;;;;;;;;;13.17;79.98;101711.38;5047048;28;1378;-84
2023/05/21 05:10:18;;;;;;;;;;;;;;;13.20;80.92;101716.34;5051765;28;1414;-80
2023/05/21 05:12:43;;;;;;;;;;;;;;;13.22;80.90;101705.84;5053704;28;1069;-84
2023/05/21 05:15:09;;;;;;;;;;;;;;;13.24;81.02;101712.56;5046026;28;1273;-82
2023/05/21 05:17:34;;;;;;;;;;;;;;;13.25;81.15;101716.03;5046129;28;1080;-83
2023/05/21 05:19:59;;;;;;;;;;;;;;;13.24;81.05;101709.97;5046712;28;1254;-81
2023/05/21 05:22:24;;;;;;;;;;;;;;;13.29;82.00;101707.84;5047359;28;1882;-81
2023/05/21 05:24:50;;;;;;;;;;;;;;;13.28;82.30;101714.00;5047166;28;1028;-85
2023/05/21 05:27:16;;;;;;;;;;;;;;;13.31;81.21;101712.94;5056724;28;1214;-82
2023/05/21 05:29:42;;;;;;;;;;;;;;;13.34;81.27;101709.25;5046688;28;1400;-84
2023/05/21 05:32:07;;;;;;;;;;;;;;;13.33;81.60;101705.81;5047266;28;981;-83
2023/05/21 05:34:32;;;;;;;;;;;;;;;13.35;81.55;101713.50;5045625;28;1139;-83
2023/05/21 05:36:58;;;;;;;;;;;;;;;13.34;82.26;101710.06;5060219;28;1309;-82
2023/05/21 05:39:23;;;;;;;;;;;;;;;13.34;81.72;101709.25;5045803;28;1230;-83
2023/05/21 05:41:48;;;;;;;;;;;;;;;13.36;81.74;101715.16;5060087;28;1894;-84
2023/05/21 05:44:13;;;;;;;;;;;;;;;13.40;81.67;101706.97;5047110;28;1121;-84
2023/05/21 05:46:38;;;;;;;;;;;;;;;13.43;81.41;101705.94;5047384;28;1318;-83
2023/05/21 05:49:04;;;;;;;;;;;;;;;13.45;81.61;101698.81;5047772;28;1122;-83
2023/05/21 05:51:29;;;;;;;;;;;;;;;13.45;82.46;101704.03;5047219;28;1286;-82
2023/05/21 05:53:54;;;;;;;;;;;;;;;13.43;82.59;101701.53;5046915;28;1368;-81
2023/05/21 05:56:20;;;;;;;;;;;;;;;13.45;81.54;101701.41;5046944;28;1215;-83
2023/05/21 05:58:45;;;;;;;;;;;;;;;13.44;82.28;101700.59;5050763;28;1305;-82
2023/05/21 06:01:10;;;;;;;;;;;;;;;13.45;82.81;101698.81;5065297;28;1894;-84
2023/05/21 06:03:36;;;;;;;;;;;;;;;13.45;82.93;101707.44;5057945;28;1266;-83
2023/05/21 06:06:01;;;;;;;;;;;;;;;13.49;83.43;101700.22;5050435;28;1206;-84
2023/05/21 06:08:26;;;;;;;;;;;;;;;13.50;82.42;101707.09;5059335;28;1306;-82
2023/05/21 06:10:51;;;;;;;;;;;;;;;13.54;82.68;101705.91;5050730;28;1581;-82
2023/05/21 06:13:16;;;;;;;;;;;;;;;13.56;82.50;101701.38;5053173;28;1255;-83
2023/05/21 06:15:42;;;;;;;;;;;;;;;13.59;81.84;101706.38;5050769;28;1177;-82
2023/05/21 06:18:07;;;;;;;;;;;;;;;13.62;82.85;101706.09;5049045;28;990;-83
2023/05/21 06:20:32;;;;;;;;;;;;;;;13.65;82.83;101705.00;5048312;28;1901;-80
2023/05/21 06:22:57;;;;;;;;;;;;;;;13.66;82.65;101712.75;5049894;28;1072;-83
2023/05/21 06:25:24;;;;;;;;;;;;;;;13.68;83.38;101713.44;5049041;28;1301;-83
2023/05/21 06:27:49;;;;;;;;;;;;;;;13.69;82.82;101709.88;5046953;28;1350;-81
2023/05/21 06:30:14;;;;;;;;;;;;;;;13.70;83.99;101708.91;5049653;28;1534;-80
2023/05/21 06:32:40;;;;;;;;;;;;;;;13.73;82.96;101715.66;5048180;28;1227;-83
2023/05/21 06:35:05;;;;;;;;;;;;;;;13.78;82.83;101709.13;5053366;28;1280;-83
2023/05/21 06:37:30;;;;;;;;;;;;;;;13.80;82.55;101704.63;5047783;28;1525;-82
2023/05/21 06:39:55;;;;;;;;;;;;;;;13.85;82.91;101706.03;5060211;28;1329;-82
2023/05/21 06:42:21;;;;;;;;;;;;;;;13.88;83.27;101705.75;5053727;28;1975;-81
2023/05/21 06:44:46;;;;;;;;;;;;;;;13.94;82.74;101710.50;5050173;28;1108;-83
2023/05/21 06:47:11;;;;;;;;;;;;;;;13.99;83.14;101713.53;5049488;28;1475;-82
2023/05/21 06:49:36;;;;;;;;;;;;;;;14.06;82.40;101699.88;5050011;28;1506;-84
2023/05/21 06:52:02;;;;;;;;;;;;;;;14.14;82.01;101691.41;5048767;28;1188;-80
2023/05/21 06:54:27;;;;;;;;;;;;;;;14.21;82.83;101697.78;5048961;28;1293;-84
2023/05/21 06:56:52;;;;;;;;;;;;;;;14.25;82.28;101693.97;5049361;28;1382;-83
2023/05/21 06:59:17;;;;;;;;;;;;;;;14.32;82.41;101702.09;5047824;28;1642;-83
2023/05/21 07:01:43;;;;;;;;;;;;;;;14.35;82.40;101702.69;5047108;28;1894;-83
2023/05/21 07:04:08;;;;;;;;;;;;;;;14.43;82.32;101696.81;5047148;28;1386;-81
2023/05/21 07:06:34;;;;;;;;;;;;;;;14.48;82.34;101699.91;5048490;28;1331;-82
2023/05/21 07:09:00;;;;;;;;;;;;;;;14.50;82.11;101697.16;5054955;28;1537;-83
2023/05/21 07:11:27;;;;;;;;;;;;;;;14.55;82.05;101687.97;5044531;28;1258;-84
2023/05/21 07:13:53;;;;;;;;;;;;;;;14.67;81.74;101683.50;5042099;28;1292;-84
2023/05/21 07:16:18;;;;;;;;;;;;;;;14.78;81.21;101683.41;5047969;28;1134;-81
2023/05/21 07:18:44;;;;;;;;;;;;;;;14.87;81.38;101685.25;5046888;28;1207;-83
2023/05/21 07:21:09;;;;;;;;;;;;;;;14.92;81.33;101697.09;5055912;28;1956;-82
2023/05/21 07:23:34;;;;;;;;;;;;;;;14.99;80.76;101688.56;5047983;28;992;-83
2023/05/21 07:25:59;;;;;;;;;;;;;;;15.06;80.91;101689.69;5048669;28;1178;-82
2023/05/21 07:28:24;;;;;;;;;;;;;;;15.16;80.75;101689.72;5046885;28;1325;-83
2023/05/21 07:30:50;;;;;;;;;;;;;;;15.20;80.44;101691.13;5048159;28;1156;-82
2023/05/21 07:33:15;;;;;;;;;;;;;;;15.22;80.30;101694.41;5048563;28;1017;-83
2023/05/21 07:35:40;;;;;;;;;;;;;;;15.27;79.94;101694.84;5048465;28;1057;-83
2023/05/21 07:38:06;;;;;;;;;;;;;;;15.30;79.76;101697.19;5047232;28;1340;-85
2023/05/21 07:40:31;;;;;;;;;;;;;;;15.41;80.16;101691.81;5046656;28;1894;-82
2023/05/21 07:42:56;;;;;;;;;;;;;;;15.52;79.67;101695.28;5046786;28;1293;-83
2023/05/21 07:45:21;;;;;;;;;;;;;;;15.57;78.91;101688.69;5048350;28;1168;-83
2023/05/21 07:47:46;;;;;;;;;;;;;;;15.62;80.32;101690.91;5050374;28;1442;-82
2023/05/21 07:50:12;;;;;;;;;;;;;;;15.71;80.27;101684.88;5048000;28;1213;-83
2023/05/21 07:52:37;;;;;;;;;;;;;;;15.79;79.14;101687.63;5046640;28;1422;-82
2023/05/21 07:55:03;;;;;;;;;;;;;;;15.87;79.54;101679.91;5048419;28;1296;-83
2023/05/21 07:57:28;;;;;;;;;;;;;;;15.91;78.16;101685.69;5047486;28;1361;-83
2023/05/21 07:59:53;;;;;;;;;;;;;;;15.92;78.01;101680.31;5049622;28;1206;-83
2023/05/21 08:02:18;;;;;;;;;;;;;;;15.93;78.21;101679.34;5047195;28;1898;-82
2023/05/21 08:04:44;;;;;;;;;;;;;;;16.00;77.81;101678.78;5045641;28;1295;-81
2023/05/21 08:07:09;;;;;;;;;;;;;;;16.02;77.65;101674.25;5046743;28;1541;-83
2023/05/21 08:09:34;;;;;;;;;;;;;;;16.01;76.95;101675.22;5047690;28;1695;-81
2023/05/21 08:11:59;;;;;;;;;;;;;;;16.00;77.52;101668.31;5047358;28;1366;-82
2023/05/21 08:14:25;;;;;;;;;;;;;;;16.03;77.70;101676.72;5047230;28;1194;-82
2023/05/21 08:16:50;;;;;;;;;;;;;;;16.12;77.26;101675.09;5047468;28;1319;-81
2023/05/21 08:19:15;;;;;;;;;;;;;;;16.18;76.71;101677.97;5047530;28;1193;-82
2023/05/21 08:21:40;;;;;;;;;;;;;;;16.16;76.67;101679.06;5048695;28;1902;-84
2023/05/21 08:24:06;;;;;;;;;;;;;;;16.19;77.58;101670.94;5046848;28;1161;-83
2023/05/21 08:26:31;;;;;;;;;;;;;;;16.25;77.26;101672.97;5046737;28;1258;-82
2023/05/21 08:28:56;;;;;;;;;;;;;;;16.33;76.68;101670.47;5047156;28;1549;-83
2023/05/21 08:31:21;;;;;;;;;;;;;;;16.39;77.41;101669.91;5055857;28;1603;-83
2023/05/21 08:33:50;;;;;;;;;;;;;;;16.46;76.95;101676.25;5047662;28;1280;-81
2023/05/21 08:36:16;;;;;;;;;;;;;;;16.48;76.08;101672.66;5047807;28;1242;-82
2023/05/21 08:38:41;;;;;;;;;;;;;;;16.52;76.64;101674.03;5047712;28;1287;-83
2023/05/21 08:41:06;;;;;;;;;;;;;;;16.61;76.49;101675.75;5047339;28;1964;-82
2023/05/21 08:43:32;;;;;;;;;;;;;;;16.66;76.34;101676.16;5054675;28;1262;-84
2023/05/21 08:45:59;;;;;;;;;;;;;;;16.68;76.66;101675.03;5047858;28;1279;-85
2023/05/21 08:48:24;;;;;;;;;;;;;;;16.67;76.46;101662.09;5048063;28;1467;-82
2023/05/21 08:50:53;;;;;;;;;;;;;;;16.69;76.51;101662.78;5065907;28;1191;-83
2023/05/21 08:53:19;;;;;;;;;;;;;;;16.69;75.88;101660.16;5045793;28;1399;-81
2023/05/21 08:55:45;;;;;;;;;;;;;;;16.71;76.51;101668.72;5047693;28;1114;-84
2023/05/21 08:58:12;;;;;;;;;;;;;;;16.75;75.87;101670.09;5046741;28;1473;-84
2023/05/21 09:00:37;;;;;;;;;;;;;;;16.76;75.28;101670.91;5046754;28;1882;-83
2023/05/21 09:03:12;;;;;;;;;;;;;;;16.83;75.98;101667.56;5047802;28;1510;-84
2023/05/21 09:05:38;;;;;;;;;;;;;;;16.98;76.04;101670.53;5044110;28;1571;-84
2023/05/21 09:08:05;;;;;;;;;;;;;;;17.11;75.42;101660.50;5045385;28;1310;-84
2023/05/21 09:10:45;;;;;;;;;;;;;;;17.17;75.52;101659.09;5046440;28;1403;-85
2023/05/21 09:13:11;;;;;;;;;;;;;;;17.24;75.24;101655.72;5047476;28;967;-84
2023/05/21 09:15:36;;;;;;;;;;;;;;;17.32;74.33;101649.78;5048485;28;1414;-85
2023/05/21 09:18:01;;;;;;;;;;;;;;;17.34;74.38;101650.44;5067678;28;1274;-81
2023/05/21 09:20:27;;;;;;;;;;;;;;;17.40;74.91;101655.06;5047688;28;1922;-83
2023/05/21 09:22:54;;;;;;;;;;;;;;;17.47;74.25;101650.88;5047269;28;1223;-84
2023/05/21 09:25:20;;;;;;;;;;;;;;;17.53;74.05;101650.28;5046480;28;1227;-85
2023/05/21 09:27:45;;;;;;;;;;;;;;;17.60;73.65;101647.88;5054400;28;1358;-82
2023/05/21 09:30:12;;;;;;;;;;;;;;;17.64;74.54;101636.09;5058595;28;1261;-84
2023/05/21 09:32:38;;;;;;;;;;;;;;;17.74;73.28;101639.50;5047513;28;1239;-84
2023/05/21 09:35:10;;;;;;;;;;;;;;;17.82;74.02;101632.66;5063584;28;1222;-84
2023/05/21 09:37:39;;;;;;;;;;;;;;;17.94;73.25;101634.88;5049149;28;1171;-83
2023/05/21 09:40:12;;;;;;;;;;;;;;;18.00;73.30;101631.63;5051677;28;1266;-85
2023/05/21 09:42:38;;;;;;;;;;;;;;;18.07;72.04;101636.31;5048239;28;1910;-82
2023/05/21 09:45:04;;;;;;;;;;;;;;;18.13;72.17;101635.69;5052928;28;1308;-83
2023/05/21 09:47:29;;;;;;;;;;;;;;;18.24;71.71;101632.78;5059670;28;1146;-84
2023/05/21 09:49:57;;;;;;;;;;;;;;;18.34;71.42;101636.13;5048592;28;1346;-82
2023/05/21 09:52:24;;;;;;;;;;;;;;;18.51;72.08;101623.88;5048785;28;1262;-84
2023/05/21 09:54:50;;;;;;;;;;;;;;;18.69;70.03;101629.91;5050421;28;1216;-83
2023/05/21 09:57:15;;;;;;;;;;;;;;;18.72;70.69;101624.34;5060919;28;1202;-82
2023/05/21 09:59:40;;;;;;;;;;;;;;;18.81;69.33;101626.03;5050352;28;1240;-83
2023/05/21 10:02:16;;;;;;;;;;;;;;;18.88;69.60;101620.94;5049969;28;1910;-83
2023/05/21 10:04:43;;;;;;;;;;;;;;;19.00;68.73;101619.66;5047735;28;1235;-83
2023/05/21 10:07:08;;;;;;;;;;;;;;;19.09;69.61;101618.66;5050269;28;1391;-83
2023/05/21 10:09:33;;;;;;;;;;;;;;;19.23;70.18;101613.78;5049284;28;1284;-83
2023/05/21 10:11:59;;;;;;;;;;;;;;;19.41;70.48;101617.09;5049173;28;1229;-83
2023/05/21 10:14:26;;;;;;;;;;;;;;;19.53;66.00;101621.03;5057858;28;1312;-84
2023/05/21 10:16:53;;;;;;;;;;;;;;;19.48;66.78;101618.06;5053460;28;1026;-84
2023/05/21 10:19:18;;;;;;;;;;;;;;;19.57;67.94;101611.84;5064554;28;1466;-84
2023/05/21 10:21:44;;;;;;;;;;;;;;;19.71;67.41;101612.19;5052634;28;1954;-83
2023/05/21 10:24:10;;;;;;;;;;;;;;;19.75;66.52;101613.50;5051643;28;1092;-82
2023/05/21 10:26:35;;;;;;;;;;;;;;;19.77;66.63;101617.59;5050411;28;986;-86
2023/05/21 10:29:01;;;;;;;;;;;;;;;19.77;65.88;101614.13;5048157;28;1429;-85
2023/05/21 10:31:26;;;;;;;;;;;;;;;19.85;66.52;101601.00;5047650;28;1262;-84
2023/05/21 10:33:55;;;;;;;;;;;;;;;20.00;67.15;101599.28;5049809;28;1160;-86
2023/05/21 10:36:23;;;;;;;;;;;;;;;20.10;66.02;101607.00;5049666;28;1414;-84
2023/05/21 10:38:48;;;;;;;;;;;;;;;20.22;65.93;101610.94;5049713;28;1259;-80
2023/05/21 10:41:14;;;;;;;;;;;;;;;20.39;66.24;101603.78;5048884;28;1969;-80
2023/05/21 10:44:03;;;;;;;;;;;;;;;20.49;65.06;101604.44;5049134;28;1165;-81
2023/05/21 10:46:41;;;;;;;;;;;;;;;20.50;63.22;101602.63;5049732;28;1161;-80
2023/05/21 10:49:17;;;;;;;;;;;;;;;20.53;63.72;101597.84;5046978;28;1235;-81
2023/05/21 10:51:57;;;;;;;;;;;;;;;20.51;62.59;101599.81;5051246;28;1180;-82
2023/05/21 10:54:51;;;;;;;;;;;;;;;20.46;63.47;101596.88;5044367;28;1299;-81
2023/05/21 10:57:16;;;;;;;;;;;;;;;20.48;63.29;101588.81;5048961;28;1135;-81
2023/05/21 10:59:43;;;;;;;;;;;;;;;20.46;63.51;101591.59;5049652;28;1382;-81
2023/05/21 11:02:10;;;;;;;;;;;;;;;20.53;64.25;101592.59;5056566;28;1977;-81
2023/05/21 11:04:40;;;;;;;;;;;;;;;20.65;63.95;101585.94;5058159;28;1313;-82
2023/05/21 11:07:05;;;;;;;;;;;;;;;20.78;63.85;101581.91;5058343;28;1384;-82
2023/05/21 11:09:31;;;;;;;;;;;;;;;20.93;63.63;101580.16;5045295;28;1397;-81
2023/05/21 11:12:03;;;;;;;;;;;;;;;21.00;62.80;101573.19;5053991;28;1319;-82
2023/05/21 11:14:36;;;;;;;;;;;;;;;21.06;63.14;101577.78;5049277;28;1283;-79
2023/05/21 11:17:02;;;;;;;;;;;;;;;21.10;62.22;101570.31;5047595;28;1244;-80
2023/05/21 11:19:43;;;;;;;;;;;;;;;21.14;61.51;101575.06;5046807;28;1244;-79
2023/05/21 11:22:21;;;;;;;;;;;;;;;21.16;62.61;101562.53;5058465;28;1898;-80
2023/05/21 11:24:47;;;;;;;;;;;;;;;21.27;62.64;101566.56;5047237;28;1238;-79
2023/05/21 11:27:12;;;;;;;;;;;;;;;21.39;62.88;101556.41;5047688;28;1632;-78
2023/05/21 11:29:39;;;;;;;;;;;;;;;21.47;62.30;101556.38;5047461;28;1290;-79
2023/05/21 11:32:05;;;;;;;;;;;;;;;21.58;62.64;101561.22;5048960;28;1182;-79
2023/05/21 11:34:39;;;;;;;;;;;;;;;21.68;61.42;101551.22;5061154;28;1255;-79
2023/05/21 11:37:17;;;;;;;;;;;;;;;21.74;61.91;101555.78;5063667;28;1438;-79
2023/05/21 11:39:42;;;;;;;;;;;;;;;21.83;60.39;101553.03;5044946;28;1300;-79
2023/05/21 11:42:08;;;;;;;;;;;;;;;21.80;61.69;101543.66;5059012;28;1893;-79
2023/05/21 11:44:46;;;;;;;;;;;;;;;21.89;61.18;101552.31;5048829;28;1257;-79
2023/05/21 11:47:18;;;;;;;;;;;;;;;21.92;60.40;101546.69;5048168;28;1259;-78
2023/05/21 11:49:43;;;;;;;;;;;;;;;22.07;61.08;101544.03;5047252;28;1284;-78
2023/05/21 11:52:09;;;;;;;;;;;;;;;22.09;60.21;101537.56;5063445;28;1313;-79
2023/05/21 11:54:47;;;;;;;;;;;;;;;22.04;59.67;101539.94;5053860;28;1380;-78
2023/05/21 11:57:15;;;;;;;;;;;;;;;22.07;59.86;101538.72;5038774;28;1204;-79
2023/05/21 11:59:41;;;;;;;;;;;;;;;22.01;60.62;101530.53;5050877;28;1416;-79
2023/05/21 12:02:07;;;;;;;;;;;;;;;22.11;60.31;101525.00;5046917;28;1921;-78
2023/05/21 12:04:36;;;;;;;;;;;;;;;22.19;60.30;101527.56;5045646;28;1545;-78
2023/05/21 12:07:08;;;;;;;;;;;;;;;22.21;60.37;101522.91;5063182;28;1258;-78
2023/05/21 12:09:39;;;;;;;;;;;;;;;22.20;59.25;101516.00;5048444;28;1114;-78
2023/05/21 12:12:06;;;;;;;;;;;;;;;22.12;59.22;101507.34;5059328;28;1416;-79
2023/05/21 12:14:31;;;;;;;;;;;;;;;22.16;60.91;101514.72;5055521;28;1446;-77
2023/05/21 12:16:57;;;;;;;;;;;;;;;22.29;59.94;101515.88;5047187;28;1533;-78
2023/05/21 12:19:22;;;;;;;;;;;;;;;22.36;58.33;101512.28;5049255;28;1141;-78
2023/05/21 12:21:47;;;;;;;;;;;;;;;22.30;57.25;101514.88;5047927;28;1902;-78
2023/05/21 12:24:14;;;;;;;;;;;;;;;22.34;59.21;101508.22;5058836;28;1201;-78
2023/05/21 12:26:40;;;;;;;;;;;;;;;22.39;58.80;101505.84;5048233;28;1136;-78
2023/05/21 12:29:06;;;;;;;;;;;;;;;22.37;58.06;101497.28;5051460;28;1456;-78
2023/05/21 12:31:31;;;;;;;;;;;;;;;22.35;59.65;101499.28;5050467;28;1101;-78
2023/05/21 12:33:56;;;;;;;;;;;;;;;22.45;59.54;101505.09;5048537;28;1415;-78
2023/05/21 12:36:25;;;;;;;;;;;;;;;22.62;58.80;101506.50;5046263;28;1296;-78
2023/05/21 12:38:50;;;;;;;;;;;;;;;22.74;58.86;101504.97;5049232;28;1293;-78
2023/05/21 12:41:16;;;;;;;;;;;;;;;22.76;58.78;101497.66;5048763;28;1988;-78
2023/05/21 12:43:41;;;;;;;;;;;;;;;22.67;58.17;101498.81;5046187;28;1257;-80